createdAt,value
2023-04-07T00:00:44.379Z,34.31
2023-04-07T00:01:44.420Z,34.31
2023-04-07T00:02:44.822Z,34.31
2023-04-07T00:03:44.481Z,34.31
2023-04-07T00:04:44.401Z,34.31
2023-04-07T00:05:44.463Z,34.31
2023-04-07T00:06:44.344Z,34.31
2023-04-07T00:07:55.003Z,34.31
2023-04-07T00:08:44.313Z,34.31
2023-04-07T00:09:44.299Z,34.31
2023-04-07T00:10:44.289Z,34.31
2023-04-07T00:11:44.431Z,34.31
2023-04-07T00:12:44.273Z,34.31
2023-04-07T00:13:51.992Z,34.31
2023-04-07T00:14:44.240Z,34.31
2023-04-07T00:15:44.271Z,34.31
2023-04-07T00:16:44.232Z,34.31
2023-04-07T00:17:44.398Z,34.31
2023-04-07T00:18:44.207Z,34.31
2023-04-07T00:19:44.200Z,34.31
2023-04-07T00:20:44.178Z,34.31
2023-04-07T00:21:44.176Z,34.31
2023-04-07T00:22:44.165Z,34.31
2023-04-07T00:23:44.185Z,34.31
2023-04-07T00:24:44.149Z,34.31
2023-04-07T00:25:44.128Z,34.31
2023-04-07T00:26:44.116Z,34.31
2023-04-07T00:27:44.121Z,34.31
2023-04-07T00:28:44.091Z,34.31
2023-04-07T00:29:44.334Z,34.31
2023-04-07T00:30:44.078Z,34.31
2023-04-07T00:31:44.101Z,34.31
2023-04-07T00:32:45.426Z,34.31
2023-04-07T00:33:44.046Z,34.31
2023-04-07T00:34:44.049Z,34.31
2023-04-07T00:35:44.171Z,34.31
2023-04-07T00:36:44.016Z,34.31
2023-04-07T00:37:44.006Z,34.31
2023-04-07T00:38:43.993Z,34.31
2023-04-07T00:39:43.989Z,34.31
2023-04-07T00:40:43.978Z,34.31
2023-04-07T00:41:44.104Z,34.31
2023-04-07T00:42:43.953Z,34.31
2023-04-07T00:43:43.939Z,34.33
2023-04-07T00:44:43.947Z,34.31
2023-04-07T00:45:43.919Z,34.33
2023-04-07T00:46:43.946Z,34.33
2023-04-07T00:47:44.061Z,34.33
2023-04-07T00:48:43.889Z,34.33
2023-04-07T00:49:43.881Z,34.33
2023-04-07T00:50:43.868Z,34.33
2023-04-07T00:51:43.851Z,34.33
2023-04-07T00:52:43.856Z,34.33
2023-04-07T00:53:43.980Z,34.33
2023-04-07T00:54:43.828Z,34.33
2023-04-07T00:55:43.813Z,34.33
2023-04-07T00:56:43.973Z,34.33
2023-04-07T00:57:43.788Z,34.33
2023-04-07T00:58:43.784Z,34.33
2023-04-07T00:59:43.791Z,34.33
2023-04-07T01:00:43.778Z,34.33
2023-04-07T01:01:43.855Z,34.33
2023-04-07T01:02:44.037Z,34.33
2023-04-07T01:03:43.977Z,34.33
2023-04-07T01:04:43.818Z,34.33
2023-04-07T01:05:43.832Z,34.33
2023-04-07T01:06:43.719Z,34.33
2023-04-07T01:07:43.690Z,34.33
2023-04-07T01:08:43.714Z,34.33
2023-04-07T01:09:43.664Z,34.33
2023-04-07T01:10:43.675Z,34.33
2023-04-07T01:11:43.775Z,34.33
2023-04-07T01:12:43.638Z,34.33
2023-04-07T01:13:50.707Z,34.33
2023-04-07T01:14:43.617Z,34.33
2023-04-07T01:15:43.611Z,34.33
2023-04-07T01:16:43.601Z,34.33
2023-04-07T01:17:43.626Z,34.33
2023-04-07T01:18:43.579Z,34.33
2023-04-07T01:19:43.569Z,34.33
2023-04-07T01:20:43.549Z,34.33
2023-04-07T01:21:43.554Z,34.33
2023-04-07T01:22:43.547Z,34.33
2023-04-07T01:23:43.653Z,34.33
2023-04-07T01:24:43.513Z,34.33
2023-04-07T01:25:43.502Z,34.33
2023-04-07T01:26:43.498Z,34.33
2023-04-07T01:27:43.472Z,34.33
2023-04-07T01:28:43.483Z,34.33
2023-04-07T01:29:43.497Z,34.33
2023-04-07T01:30:43.457Z,34.33
2023-04-07T01:31:43.518Z,34.33
2023-04-07T01:32:43.478Z,34.33
2023-04-07T01:33:43.416Z,34.33
2023-04-07T01:34:43.407Z,34.33
2023-04-07T01:35:43.647Z,34.33
2023-04-07T01:36:43.415Z,34.33
2023-04-07T01:37:43.389Z,34.33
2023-04-07T01:38:43.365Z,34.33
2023-04-07T01:39:43.353Z,34.33
2023-04-07T01:40:43.352Z,34.34
2023-04-07T01:41:43.503Z,34.33
2023-04-07T01:42:43.417Z,34.44
2023-04-07T01:43:44.445Z,34.34
2023-04-07T01:44:43.311Z,34.34
2023-04-07T01:45:43.300Z,34.34
2023-04-07T01:46:43.320Z,34.34
2023-04-07T01:47:43.334Z,34.34
2023-04-07T01:48:43.268Z,34.34
2023-04-07T01:49:43.257Z,34.34
2023-04-07T01:50:43.241Z,34.34
2023-04-07T01:51:43.238Z,34.34
2023-04-07T01:52:43.217Z,34.34
2023-04-07T01:53:43.368Z,34.34
2023-04-07T01:54:43.211Z,34.34
2023-04-07T01:55:43.197Z,34.34
2023-04-07T01:56:43.192Z,34.34
2023-04-07T01:57:43.178Z,34.34
2023-04-07T01:58:43.163Z,34.34
2023-04-07T01:59:43.285Z,34.34
2023-04-07T02:00:43.177Z,34.34
2023-04-07T02:01:43.285Z,34.34
2023-04-07T02:02:43.192Z,34.34
2023-04-07T02:03:43.258Z,34.34
2023-04-07T02:04:43.101Z,34.34
2023-04-07T02:05:43.243Z,34.34
2023-04-07T02:06:43.083Z,34.34
2023-04-07T02:07:43.073Z,34.34
2023-04-07T02:08:43.059Z,34.34
2023-04-07T02:09:43.055Z,34.34
2023-04-07T02:10:43.039Z,34.34
2023-04-07T02:11:43.056Z,34.34
2023-04-07T02:12:43.028Z,34.34
2023-04-07T02:13:50.223Z,34.34
2023-04-07T02:14:42.995Z,34.34
2023-04-07T02:15:42.993Z,34.34
2023-04-07T02:16:43.012Z,34.34
2023-04-07T02:17:43.046Z,34.34
2023-04-07T02:18:42.957Z,34.34
2023-04-07T02:19:42.951Z,34.34
2023-04-07T02:20:42.932Z,34.34
2023-04-07T02:21:42.926Z,34.34
2023-04-07T02:22:42.912Z,34.34
2023-04-07T02:23:42.941Z,34.34
2023-04-07T02:24:42.896Z,34.34
2023-04-07T02:25:42.891Z,34.34
2023-04-07T02:26:42.879Z,34.34
2023-04-07T02:27:42.867Z,34.34
2023-04-07T02:28:42.845Z,34.34
2023-04-07T02:29:42.972Z,34.34
2023-04-07T02:30:42.825Z,34.34
2023-04-07T02:31:42.917Z,34.34
2023-04-07T02:32:42.849Z,34.34
2023-04-07T02:33:42.809Z,34.34
2023-04-07T02:34:42.796Z,34.34
2023-04-07T02:35:42.918Z,34.34
2023-04-07T02:36:42.774Z,34.34
2023-04-07T02:37:42.755Z,34.34
2023-04-07T02:38:42.746Z,34.34
2023-04-07T02:39:42.738Z,34.34
2023-04-07T02:40:42.727Z,34.34
2023-04-07T02:41:43.018Z,34.34
2023-04-07T02:42:42.709Z,34.34
2023-04-07T02:43:42.698Z,34.34
2023-04-07T02:44:42.678Z,34.36
2023-04-07T02:45:42.703Z,34.36
2023-04-07T02:46:42.662Z,34.36
2023-04-07T02:47:42.728Z,34.36
2023-04-07T02:48:42.645Z,34.36
2023-04-07T02:49:42.622Z,34.36
2023-04-07T02:50:42.620Z,34.36
2023-04-07T02:51:42.613Z,34.36
2023-04-07T02:52:42.601Z,34.36
2023-04-07T02:53:42.730Z,34.36
2023-04-07T02:54:42.585Z,34.36
2023-04-07T02:55:42.572Z,34.36
2023-04-07T02:56:42.553Z,34.36
2023-04-07T02:57:42.556Z,34.36
2023-04-07T02:58:42.544Z,34.36
2023-04-07T02:59:42.680Z,34.36
2023-04-07T03:00:42.518Z,34.36
2023-04-07T03:01:42.584Z,34.36
2023-04-07T03:02:42.561Z,34.36
2023-04-07T03:03:42.636Z,34.36
2023-04-07T03:04:42.475Z,34.36
2023-04-07T03:05:42.622Z,34.36
2023-04-07T03:06:42.445Z,34.36
2023-04-07T03:07:42.443Z,34.36
2023-04-07T03:08:42.441Z,34.36
2023-04-07T03:09:42.426Z,34.36
2023-04-07T03:10:42.412Z,34.36
2023-04-07T03:11:42.541Z,34.36
2023-04-07T03:12:42.386Z,34.36
2023-04-07T03:13:48.893Z,34.36
2023-04-07T03:14:42.382Z,34.36
2023-04-07T03:15:42.361Z,34.36
2023-04-07T03:16:42.385Z,34.36
2023-04-07T03:17:42.540Z,34.36
2023-04-07T03:18:42.326Z,34.36
2023-04-07T03:19:42.315Z,34.36
2023-04-07T03:20:42.309Z,34.36
2023-04-07T03:21:42.296Z,34.36
2023-04-07T03:22:42.283Z,34.26
2023-04-07T03:23:42.410Z,34.26
2023-04-07T03:24:42.270Z,34.36
2023-04-07T03:25:42.261Z,34.26
2023-04-07T03:26:42.246Z,34.36
2023-04-07T03:27:42.234Z,34.26
2023-04-07T03:28:42.221Z,34.36
2023-04-07T03:29:42.253Z,34.26
2023-04-07T03:30:42.212Z,34.36
2023-04-07T03:31:42.202Z,34.36
2023-04-07T03:32:42.238Z,34.26
2023-04-07T03:33:42.176Z,34.36
2023-04-07T03:34:42.168Z,34.26
2023-04-07T03:35:42.300Z,34.36
2023-04-07T03:36:42.140Z,34.26
2023-04-07T03:37:42.129Z,34.36
2023-04-07T03:38:42.117Z,34.26
2023-04-07T03:39:42.146Z,34.26
2023-04-07T03:40:42.113Z,34.26
2023-04-07T03:41:42.387Z,34.26
2023-04-07T03:42:42.073Z,34.26
2023-04-07T03:43:42.079Z,34.26
2023-04-07T03:44:42.070Z,34.26
2023-04-07T03:45:42.043Z,34.26
2023-04-07T03:46:42.120Z,34.26
2023-04-07T03:47:42.074Z,34.26
2023-04-07T03:48:42.017Z,34.26
2023-04-07T03:49:42.015Z,34.26
2023-04-07T03:50:42.015Z,34.26
2023-04-07T03:51:41.984Z,34.26
2023-04-07T03:52:41.984Z,34.26
2023-04-07T03:53:42.101Z,34.27
2023-04-07T03:54:41.952Z,34.27
2023-04-07T03:55:41.952Z,34.27
2023-04-07T03:56:41.949Z,34.27
2023-04-07T03:57:41.932Z,34.27
2023-04-07T03:58:41.856Z,34.27
2023-04-07T03:59:42.072Z,34.27
2023-04-07T04:00:41.889Z,34.27
2023-04-07T04:01:41.860Z,34.27
2023-04-07T04:02:41.892Z,34.27
2023-04-07T04:03:41.890Z,34.27
2023-04-07T04:04:41.865Z,34.27
2023-04-07T04:05:41.984Z,34.27
2023-04-07T04:06:41.790Z,34.27
2023-04-07T04:07:41.790Z,34.27
2023-04-07T04:08:41.780Z,34.27
2023-04-07T04:09:41.747Z,34.27
2023-04-07T04:10:41.786Z,34.27
2023-04-07T04:11:41.910Z,34.27
2023-04-07T04:12:41.715Z,34.27
2023-04-07T04:13:48.759Z,34.27
2023-04-07T04:14:41.689Z,34.27
2023-04-07T04:15:41.718Z,34.27
2023-04-07T04:16:41.675Z,34.27
2023-04-07T04:17:41.734Z,34.27
2023-04-07T04:18:41.652Z,34.27
2023-04-07T04:19:41.647Z,34.27
2023-04-07T04:20:41.651Z,34.27
2023-04-07T04:21:41.622Z,34.27
2023-04-07T04:22:41.609Z,34.27
2023-04-07T04:23:41.658Z,34.27
2023-04-07T04:24:41.579Z,34.27
2023-04-07T04:25:41.617Z,34.27
2023-04-07T04:26:41.564Z,34.27
2023-04-07T04:27:41.563Z,34.27
2023-04-07T04:28:41.550Z,34.27
2023-04-07T04:29:41.674Z,34.27
2023-04-07T04:30:41.528Z,34.27
2023-04-07T04:31:41.564Z,34.27
2023-04-07T04:32:41.550Z,34.17
2023-04-07T04:33:41.502Z,34.27
2023-04-07T04:34:41.486Z,34.27
2023-04-07T04:35:41.608Z,34.27
2023-04-07T04:36:41.582Z,34.27
2023-04-07T04:37:41.451Z,34.27
2023-04-07T04:38:41.447Z,34.27
2023-04-07T04:39:41.434Z,34.27
2023-04-07T04:40:41.419Z,34.27
2023-04-07T04:41:41.435Z,34.27
2023-04-07T04:42:41.408Z,34.27
2023-04-07T04:43:42.394Z,34.27
2023-04-07T04:44:41.388Z,34.27
2023-04-07T04:45:41.367Z,34.27
2023-04-07T04:46:41.413Z,34.17
2023-04-07T04:47:41.466Z,34.17
2023-04-07T04:48:41.332Z,34.17
2023-04-07T04:49:41.337Z,34.27
2023-04-07T04:50:41.313Z,34.27
2023-04-07T04:51:41.318Z,34.27
2023-04-07T04:52:41.291Z,34.17
2023-04-07T04:53:41.455Z,34.27
2023-04-07T04:54:41.281Z,34.27
2023-04-07T04:55:41.283Z,34.17
2023-04-07T04:56:41.272Z,34.27
2023-04-07T04:57:41.252Z,34.27
2023-04-07T04:58:41.235Z,34.27
2023-04-07T04:59:41.395Z,34.27
2023-04-07T05:00:41.234Z,34.27
2023-04-07T05:01:41.374Z,34.27
2023-04-07T05:02:41.307Z,34.29
2023-04-07T05:03:41.350Z,34.17
2023-04-07T05:04:41.367Z,34.27
2023-04-07T05:05:41.309Z,34.27
2023-04-07T05:06:41.148Z,34.29
2023-04-07T05:07:41.146Z,34.29
2023-04-07T05:08:41.123Z,34.29
2023-04-07T05:09:41.114Z,34.29
2023-04-07T05:10:41.116Z,34.29
2023-04-07T05:11:41.245Z,34.29
2023-04-07T05:12:41.087Z,34.29
2023-04-07T05:14:34.214Z,34.19
2023-04-07T05:15:35.184Z,34.29
2023-04-07T05:16:35.246Z,34.29
2023-04-07T05:17:35.241Z,34.29
2023-04-07T05:18:35.150Z,34.29
2023-04-07T05:19:35.144Z,34.29
2023-04-07T05:20:35.146Z,34.29
2023-04-07T05:21:35.117Z,34.29
2023-04-07T05:22:35.115Z,34.29
2023-04-07T05:23:35.250Z,34.29
2023-04-07T05:24:35.095Z,34.29
2023-04-07T05:25:35.076Z,34.29
2023-04-07T05:26:35.074Z,34.29
2023-04-07T05:27:35.129Z,34.29
2023-04-07T05:28:35.055Z,34.29
2023-04-07T05:29:35.204Z,34.29
2023-04-07T05:30:35.029Z,34.29
2023-04-07T05:31:35.089Z,34.29
2023-04-07T05:32:35.097Z,34.19
2023-04-07T05:33:34.996Z,34.29
2023-04-07T05:34:34.985Z,34.29
2023-04-07T05:35:35.100Z,34.19
2023-04-07T05:36:35.073Z,34.29
2023-04-07T05:37:34.953Z,34.29
2023-04-07T05:38:34.949Z,34.19
2023-04-07T05:39:34.928Z,34.19
2023-04-07T05:40:37.268Z,34.19
2023-04-07T05:41:35.054Z,34.29
2023-04-07T05:42:34.921Z,34.19
2023-04-07T05:43:34.882Z,34.19
2023-04-07T05:44:34.882Z,34.29
2023-04-07T05:45:34.887Z,34.19
2023-04-07T05:46:34.916Z,34.29
2023-04-07T05:47:34.905Z,34.19
2023-04-07T05:48:34.835Z,34.29
2023-04-07T05:49:34.831Z,34.29
2023-04-07T05:50:34.820Z,34.19
2023-04-07T05:51:34.823Z,34.19
2023-04-07T05:52:34.797Z,34.29
2023-04-07T05:53:34.854Z,34.29
2023-04-07T05:54:34.777Z,34.29
2023-04-07T05:55:34.761Z,34.19
2023-04-07T05:56:34.753Z,34.29
2023-04-07T05:57:34.737Z,34.29
2023-04-07T05:58:34.738Z,34.29
2023-04-07T05:59:34.854Z,34.19
2023-04-07T06:00:34.711Z,34.29
2023-04-07T06:01:34.708Z,34.29
2023-04-07T06:02:34.830Z,34.29
2023-04-07T06:03:34.815Z,34.19
2023-04-07T06:04:34.675Z,34.29
2023-04-07T06:05:34.770Z,34.29
2023-04-07T06:06:34.654Z,34.19
2023-04-07T06:07:34.633Z,34.29
2023-04-07T06:08:34.629Z,34.19
2023-04-07T06:09:34.611Z,34.29
2023-04-07T06:10:34.604Z,34.19
2023-04-07T06:11:34.625Z,34.19
2023-04-07T06:12:34.592Z,34.19
2023-04-07T06:13:36.974Z,34.19
2023-04-07T06:14:42.558Z,34.19
2023-04-07T06:15:34.553Z,34.19
2023-04-07T06:16:34.562Z,34.19
2023-04-07T06:17:34.581Z,34.19
2023-04-07T06:18:34.522Z,34.19
2023-04-07T06:19:34.512Z,34.19
2023-04-07T06:20:34.496Z,34.19
2023-04-07T06:21:34.490Z,34.19
2023-04-07T06:22:34.481Z,34.19
2023-04-07T06:23:34.505Z,34.20
2023-04-07T06:24:34.456Z,34.20
2023-04-07T06:25:34.443Z,34.20
2023-04-07T06:26:34.449Z,34.19
2023-04-07T06:27:34.421Z,34.20
2023-04-07T06:28:34.426Z,34.19
2023-04-07T06:29:34.548Z,34.20
2023-04-07T06:30:34.413Z,34.20
2023-04-07T06:31:34.385Z,34.19
2023-04-07T06:32:34.400Z,34.20
2023-04-07T06:33:34.369Z,34.20
2023-04-07T06:34:34.359Z,34.20
2023-04-07T06:35:34.492Z,34.20
2023-04-07T06:36:34.334Z,34.20
2023-04-07T06:37:34.320Z,34.20
2023-04-07T06:38:34.304Z,34.20
2023-04-07T06:39:34.292Z,34.20
2023-04-07T06:40:34.284Z,34.20
2023-04-07T06:41:34.422Z,34.20
2023-04-07T06:42:34.274Z,34.20
2023-04-07T06:43:34.250Z,34.20
2023-04-07T06:44:34.249Z,34.20
2023-04-07T06:45:34.231Z,34.20
2023-04-07T06:46:34.363Z,34.20
2023-04-07T06:47:34.268Z,34.20
2023-04-07T06:48:34.205Z,34.20
2023-04-07T06:49:36.619Z,34.20
2023-04-07T06:50:34.187Z,34.20
2023-04-07T06:51:34.174Z,34.20
2023-04-07T06:52:34.167Z,34.20
2023-04-07T06:53:34.240Z,34.20
2023-04-07T06:54:34.136Z,34.20
2023-04-07T06:55:34.140Z,34.20
2023-04-07T06:56:34.123Z,34.20
2023-04-07T06:57:34.113Z,34.10
2023-04-07T06:58:34.225Z,34.20
2023-04-07T06:59:34.245Z,34.20
2023-04-07T07:00:34.073Z,34.20
2023-04-07T07:01:34.132Z,34.20
2023-04-07T07:02:34.170Z,34.10
2023-04-07T07:03:34.223Z,34.20
2023-04-07T07:04:34.125Z,34.20
2023-04-07T07:05:34.233Z,34.10
2023-04-07T07:06:34.016Z,34.20
2023-04-07T07:07:34.291Z,34.20
2023-04-07T07:08:33.994Z,34.20
2023-04-07T07:09:33.972Z,34.20
2023-04-07T07:10:33.973Z,34.20
2023-04-07T07:11:34.099Z,34.10
2023-04-07T07:12:33.944Z,34.10
2023-04-07T07:13:33.938Z,34.10
2023-04-07T07:14:42.083Z,34.10
2023-04-07T07:15:33.916Z,34.20
2023-04-07T07:16:33.901Z,34.20
2023-04-07T07:17:33.928Z,34.20
2023-04-07T07:18:33.888Z,34.20
2023-04-07T07:19:33.868Z,34.20
2023-04-07T07:20:33.866Z,34.10
2023-04-07T07:21:33.849Z,34.10
2023-04-07T07:22:33.838Z,34.10
2023-04-07T07:23:33.991Z,34.10
2023-04-07T07:24:33.829Z,34.10
2023-04-07T07:25:33.804Z,34.10
2023-04-07T07:26:33.798Z,34.10
2023-04-07T07:27:33.784Z,34.10
2023-04-07T07:28:33.775Z,34.10
2023-04-07T07:29:33.903Z,34.10
2023-04-07T07:30:33.757Z,34.10
2023-04-07T07:31:33.799Z,34.10
2023-04-07T07:32:33.756Z,34.10
2023-04-07T07:33:33.719Z,34.10
2023-04-07T07:34:33.718Z,34.20
2023-04-07T07:35:33.876Z,34.10
2023-04-07T07:36:33.693Z,34.10
2023-04-07T07:37:33.676Z,34.10
2023-04-07T07:38:34.635Z,34.10
2023-04-07T07:39:33.663Z,34.10
2023-04-07T07:40:33.663Z,34.10
2023-04-07T07:41:33.794Z,34.10
2023-04-07T07:42:33.647Z,34.10
2023-04-07T07:43:33.611Z,34.10
2023-04-07T07:44:33.612Z,34.10
2023-04-07T07:45:33.602Z,34.10
2023-04-07T07:46:33.602Z,34.10
2023-04-07T07:47:33.729Z,34.10
2023-04-07T07:48:33.569Z,34.10
2023-04-07T07:49:34.460Z,34.10
2023-04-07T07:50:33.545Z,34.10
2023-04-07T07:51:33.527Z,34.10
2023-04-07T07:52:33.522Z,34.10
2023-04-07T07:53:33.655Z,34.10
2023-04-07T07:54:33.500Z,34.10
2023-04-07T07:55:33.484Z,34.10
2023-04-07T07:56:33.477Z,34.10
2023-04-07T07:57:33.475Z,34.10
2023-04-07T07:58:33.460Z,34.10
2023-04-07T07:59:33.771Z,34.10
2023-04-07T08:00:33.445Z,34.10
2023-04-07T08:01:33.432Z,34.10
2023-04-07T08:02:33.527Z,34.10
2023-04-07T08:03:33.589Z,34.10
2023-04-07T08:04:33.427Z,34.10
2023-04-07T08:05:33.436Z,34.10
2023-04-07T08:06:33.374Z,34.10
2023-04-07T08:07:33.358Z,34.10
2023-04-07T08:08:33.348Z,34.10
2023-04-07T08:09:33.339Z,34.10
2023-04-07T08:10:33.335Z,34.10
2023-04-07T08:11:33.458Z,34.10
2023-04-07T08:12:33.329Z,34.10
2023-04-07T08:13:33.300Z,34.10
2023-04-07T08:14:41.602Z,34.10
2023-04-07T08:15:33.276Z,34.10
2023-04-07T08:16:33.375Z,34.10
2023-04-07T08:17:33.461Z,34.10
2023-04-07T08:18:33.257Z,34.10
2023-04-07T08:19:33.244Z,34.10
2023-04-07T08:20:33.226Z,34.10
2023-04-07T08:21:33.220Z,34.10
2023-04-07T08:22:33.199Z,34.10
2023-04-07T08:23:33.344Z,34.10
2023-04-07T08:24:33.192Z,34.10
2023-04-07T08:25:33.167Z,34.10
2023-04-07T08:26:33.162Z,34.10
2023-04-07T08:27:33.168Z,34.10
2023-04-07T08:28:33.140Z,34.10
2023-04-07T08:29:33.295Z,34.10
2023-04-07T08:30:33.124Z,34.10
2023-04-07T08:31:33.131Z,34.10
2023-04-07T08:32:33.106Z,34.10
2023-04-07T08:33:33.087Z,34.10
2023-04-07T08:34:33.071Z,34.10
2023-04-07T08:35:33.228Z,34.00
2023-04-07T08:36:33.080Z,34.00
2023-04-07T08:37:33.049Z,34.10
2023-04-07T08:38:33.030Z,34.00
2023-04-07T08:39:33.016Z,34.00
2023-04-07T08:40:33.007Z,34.00
2023-04-07T08:41:33.033Z,34.00
2023-04-07T08:42:32.988Z,34.00
2023-04-07T08:43:32.976Z,34.00
2023-04-07T08:44:32.973Z,34.00
2023-04-07T08:45:32.955Z,34.10
2023-04-07T08:46:32.965Z,34.00
2023-04-07T08:47:33.126Z,34.00
2023-04-07T08:48:32.919Z,34.00
2023-04-07T08:49:32.923Z,34.00
2023-04-07T08:50:32.895Z,34.00
2023-04-07T08:51:32.895Z,34.00
2023-04-07T08:52:32.886Z,34.00
2023-04-07T08:53:33.018Z,34.00
2023-04-07T08:54:32.859Z,34.00
2023-04-07T08:55:32.874Z,34.00
2023-04-07T08:56:32.842Z,34.00
2023-04-07T08:57:32.833Z,34.00
2023-04-07T08:58:32.812Z,34.00
2023-04-07T08:59:32.945Z,34.00
2023-04-07T09:00:32.812Z,34.00
2023-04-07T09:01:32.932Z,33.90
2023-04-07T09:02:32.805Z,34.00
2023-04-07T09:03:32.922Z,33.90
2023-04-07T09:04:32.750Z,33.90
2023-04-07T09:05:33.050Z,34.00
2023-04-07T09:06:32.725Z,33.90
2023-04-07T09:07:32.735Z,33.90
2023-04-07T09:08:32.708Z,33.90
2023-04-07T09:09:32.708Z,33.90
2023-04-07T09:10:32.681Z,33.90
2023-04-07T09:11:32.810Z,33.90
2023-04-07T09:12:32.669Z,33.90
2023-04-07T09:13:32.665Z,33.90
2023-04-07T09:14:41.113Z,33.80
2023-04-07T09:15:32.634Z,33.90
2023-04-07T09:16:32.639Z,33.90
2023-04-07T09:17:32.683Z,33.90
2023-04-07T09:18:32.612Z,33.90
2023-04-07T09:19:32.590Z,33.80
2023-04-07T09:20:32.580Z,33.80
2023-04-07T09:21:32.569Z,33.80
2023-04-07T09:22:32.550Z,33.80
2023-04-07T09:23:32.683Z,33.80
2023-04-07T09:24:32.528Z,33.80
2023-04-07T09:25:32.527Z,33.80
2023-04-07T09:26:32.514Z,33.80
2023-04-07T09:27:32.512Z,33.80
2023-04-07T09:28:32.491Z,33.80
2023-04-07T09:29:32.533Z,33.80
2023-04-07T09:30:32.505Z,33.80
2023-04-07T09:31:32.606Z,33.80
2023-04-07T09:32:32.484Z,33.80
2023-04-07T09:33:32.440Z,33.80
2023-04-07T09:34:32.433Z,33.80
2023-04-07T09:35:32.514Z,33.80
2023-04-07T09:36:32.406Z,33.80
2023-04-07T09:37:32.397Z,33.80
2023-04-07T09:38:32.383Z,33.69
2023-04-07T09:39:32.380Z,33.80
2023-04-07T09:40:32.358Z,33.80
2023-04-07T09:41:32.536Z,33.69
2023-04-07T09:42:32.378Z,33.69
2023-04-07T09:43:32.339Z,33.69
2023-04-07T09:44:32.324Z,33.80
2023-04-07T09:45:35.184Z,33.80
2023-04-07T09:46:32.304Z,33.80
2023-04-07T09:47:32.498Z,33.69
2023-04-07T09:48:32.291Z,33.80
2023-04-07T09:49:32.272Z,33.80
2023-04-07T09:50:32.256Z,33.69
2023-04-07T09:51:32.317Z,33.69
2023-04-07T09:52:32.231Z,33.69
2023-04-07T09:53:32.291Z,33.69
2023-04-07T09:54:32.212Z,33.69
2023-04-07T09:55:32.207Z,33.69
2023-04-07T09:56:32.198Z,33.69
2023-04-07T09:57:32.188Z,33.69
2023-04-07T09:58:32.172Z,33.69
2023-04-07T09:59:32.342Z,33.69
2023-04-07T10:00:32.153Z,33.69
2023-04-07T10:01:32.251Z,33.69
2023-04-07T10:02:32.251Z,33.69
2023-04-07T10:03:32.207Z,33.69
2023-04-07T10:04:32.258Z,33.69
2023-04-07T10:05:32.367Z,33.69
2023-04-07T10:06:32.096Z,33.69
2023-04-07T10:07:32.083Z,33.69
2023-04-07T10:08:32.064Z,33.69
2023-04-07T10:09:32.069Z,33.69
2023-04-07T10:10:32.042Z,33.69
2023-04-07T10:11:32.186Z,33.69
2023-04-07T10:12:32.021Z,33.69
2023-04-07T10:13:32.021Z,33.69
2023-04-07T10:14:40.378Z,33.69
2023-04-07T10:15:32.000Z,33.69
2023-04-07T10:16:32.024Z,33.69
2023-04-07T10:17:32.141Z,33.69
2023-04-07T10:18:31.961Z,33.69
2023-04-07T10:19:31.953Z,33.69
2023-04-07T10:20:31.944Z,33.59
2023-04-07T10:21:32.911Z,33.69
2023-04-07T10:22:31.922Z,33.59
2023-04-07T10:23:32.068Z,33.69
2023-04-07T10:24:31.917Z,33.69
2023-04-07T10:25:31.919Z,33.59
2023-04-07T10:26:31.880Z,33.69
2023-04-07T10:27:31.873Z,33.59
2023-04-07T10:28:31.858Z,33.59
2023-04-07T10:29:31.895Z,33.59
2023-04-07T10:30:31.848Z,33.59
2023-04-07T10:31:31.921Z,33.59
2023-04-07T10:32:31.912Z,33.69
2023-04-07T10:33:31.807Z,33.59
2023-04-07T10:34:31.793Z,33.59
2023-04-07T10:35:31.951Z,33.59
2023-04-07T10:36:31.784Z,33.59
2023-04-07T10:37:31.765Z,33.59
2023-04-07T10:38:31.763Z,33.59
2023-04-07T10:39:31.743Z,33.59
2023-04-07T10:40:31.777Z,33.59
2023-04-07T10:41:31.882Z,33.59
2023-04-07T10:42:31.717Z,33.59
2023-04-07T10:43:31.705Z,33.59
2023-04-07T10:44:31.687Z,33.59
2023-04-07T10:45:31.689Z,33.59
2023-04-07T10:46:31.694Z,33.59
2023-04-07T10:47:31.824Z,33.59
2023-04-07T10:48:31.658Z,33.59
2023-04-07T10:49:31.640Z,33.59
2023-04-07T10:50:31.627Z,33.59
2023-04-07T10:51:31.622Z,33.59
2023-04-07T10:52:31.632Z,33.59
2023-04-07T10:53:31.749Z,33.59
2023-04-07T10:54:31.585Z,33.59
2023-04-07T10:55:31.610Z,33.59
2023-04-07T10:56:31.569Z,33.59
2023-04-07T10:57:31.567Z,33.59
2023-04-07T10:58:31.565Z,33.59
2023-04-07T10:59:31.681Z,33.59
2023-04-07T11:00:31.537Z,33.59
2023-04-07T11:01:31.604Z,33.59
2023-04-07T11:02:31.706Z,33.59
2023-04-07T11:03:31.611Z,33.59
2023-04-07T11:04:31.509Z,33.59
2023-04-07T11:05:31.609Z,33.59
2023-04-07T11:06:31.476Z,33.59
2023-04-07T11:07:31.444Z,33.59
2023-04-07T11:08:31.435Z,33.59
2023-04-07T11:09:31.434Z,33.59
2023-04-07T11:10:31.410Z,33.59
2023-04-07T11:11:31.734Z,33.59
2023-04-07T11:12:31.403Z,33.59
2023-04-07T11:13:31.378Z,33.59
2023-04-07T11:14:38.662Z,33.49
2023-04-07T11:15:31.361Z,33.59
2023-04-07T11:16:31.399Z,33.49
2023-04-07T11:17:31.528Z,33.59
2023-04-07T11:18:31.324Z,33.59
2023-04-07T11:19:31.331Z,33.59
2023-04-07T11:20:31.304Z,33.49
2023-04-07T11:21:31.298Z,33.59
2023-04-07T11:22:31.283Z,33.59
2023-04-07T11:23:31.418Z,33.59
2023-04-07T11:24:31.273Z,33.59
2023-04-07T11:25:31.262Z,33.59
2023-04-07T11:26:31.237Z,33.59
2023-04-07T11:27:31.231Z,33.59
2023-04-07T11:28:31.222Z,33.59
2023-04-07T11:29:31.261Z,33.59
2023-04-07T11:30:31.198Z,33.59
2023-04-07T11:31:31.293Z,33.59
2023-04-07T11:32:31.204Z,33.59
2023-04-07T11:33:31.183Z,33.59
2023-04-07T11:34:31.150Z,33.49
2023-04-07T11:35:31.380Z,33.49
2023-04-07T11:36:31.147Z,33.49
2023-04-07T11:37:31.130Z,33.59
2023-04-07T11:38:31.158Z,33.49
2023-04-07T11:39:31.111Z,33.49
2023-04-07T11:40:31.094Z,33.49
2023-04-07T11:41:31.243Z,33.59
2023-04-07T11:42:31.068Z,33.49
2023-04-07T11:43:31.060Z,33.49
2023-04-07T11:44:31.049Z,33.49
2023-04-07T11:45:31.045Z,33.49
2023-04-07T11:46:31.064Z,33.49
2023-04-07T11:47:31.243Z,33.49
2023-04-07T11:48:31.009Z,33.49
2023-04-07T11:49:31.002Z,33.49
2023-04-07T11:50:30.983Z,33.49
2023-04-07T11:51:30.983Z,33.49
2023-04-07T11:52:30.971Z,33.49
2023-04-07T11:53:31.100Z,33.59
2023-04-07T11:54:30.942Z,33.49
2023-04-07T11:55:30.941Z,33.49
2023-04-07T11:56:30.921Z,33.49
2023-04-07T11:57:30.918Z,33.59
2023-04-07T11:58:30.901Z,33.59
2023-04-07T11:59:30.940Z,33.59
2023-04-07T12:00:30.880Z,33.59
2023-04-07T12:01:30.908Z,33.59
2023-04-07T12:02:31.108Z,33.49
2023-04-07T12:03:30.995Z,33.59
2023-04-07T12:04:30.894Z,33.59
2023-04-07T12:05:30.987Z,33.59
2023-04-07T12:06:30.821Z,33.59
2023-04-07T12:07:30.805Z,33.59
2023-04-07T12:08:30.795Z,33.59
2023-04-07T12:09:30.823Z,33.59
2023-04-07T12:10:30.773Z,33.59
2023-04-07T12:11:30.900Z,33.59
2023-04-07T12:12:30.770Z,33.59
2023-04-07T12:13:30.740Z,33.59
2023-04-07T12:14:37.224Z,33.59
2023-04-07T12:15:30.722Z,33.59
2023-04-07T12:16:30.753Z,33.59
2023-04-07T12:17:30.975Z,33.59
2023-04-07T12:18:30.686Z,33.59
2023-04-07T12:19:30.681Z,33.59
2023-04-07T12:20:30.681Z,33.59
2023-04-07T12:21:30.661Z,33.59
2023-04-07T12:22:30.705Z,33.59
2023-04-07T12:23:30.785Z,33.59
2023-04-07T12:24:30.637Z,33.59
2023-04-07T12:25:30.635Z,33.59
2023-04-07T12:26:30.615Z,33.59
2023-04-07T12:27:42.264Z,33.59
2023-04-07T12:28:30.614Z,33.59
2023-04-07T12:29:30.635Z,33.59
2023-04-07T12:30:30.563Z,33.59
2023-04-07T12:31:30.555Z,33.59
2023-04-07T12:32:30.659Z,33.59
2023-04-07T12:33:30.531Z,33.59
2023-04-07T12:34:30.518Z,33.59
2023-04-07T12:35:30.698Z,33.59
2023-04-07T12:36:30.519Z,33.59
2023-04-07T12:37:30.483Z,33.59
2023-04-07T12:38:30.499Z,33.59
2023-04-07T12:39:30.465Z,33.59
2023-04-07T12:40:30.460Z,33.59
2023-04-07T12:41:30.503Z,33.59
2023-04-07T12:42:30.443Z,33.59
2023-04-07T12:43:30.425Z,33.59
2023-04-07T12:44:30.429Z,33.59
2023-04-07T12:45:30.449Z,33.59
2023-04-07T12:46:30.462Z,33.59
2023-04-07T12:47:30.531Z,33.59
2023-04-07T12:48:30.379Z,33.59
2023-04-07T12:49:30.358Z,33.59
2023-04-07T12:50:30.360Z,33.59
2023-04-07T12:51:30.336Z,33.59
2023-04-07T12:52:30.335Z,33.59
2023-04-07T12:53:30.479Z,33.59